Time;durP1;ratioP1;P1;durP2;ratioP2;P2;SDS_P1;SDS_P2;PMS_P1;PMS_P2;Temp;Humidity;BMP_temperature;BMP_pressure;BME280_temperature;BME280_humidity;BME280_pressure;Samples;Min_cycle;Max_cycle;Signal;HPM_P1;HPM_P2
2021/01/24 00:01:27;;;;;;;47.92;42.92;;;27.10;82.10;;;;;;4955794;28;20233;-55
2021/01/24 00:03:57;;;;;;;48.40;43.60;;;27.00;82.10;;;;;;4970964;28;20240;-57
2021/01/24 00:06:28;;;;;;;49.85;44.55;;;27.00;82.10;;;;;;4995684;28;20241;-56
2021/01/24 00:08:58;;;;;;;43.75;39.33;;;27.00;83.10;;;;;;5033030;28;20234;-57
2021/01/24 00:11:29;;;;;;;49.10;44.28;;;27.00;82.40;;;;;;5039333;28;20285;-54
2021/01/24 00:13:59;;;;;;;46.95;42.42;;;27.00;82.50;;;;;;5035668;28;20303;-57
2021/01/24 00:16:31;;;;;;;47.08;42.03;;;27.00;82.60;;;;;;5036145;28;20233;-56
2021/01/24 00:19:02;;;;;;;46.13;41.35;;;27.00;82.80;;;;;;5024964;28;20253;-56
2021/01/24 00:21:33;;;;;;;42.15;37.88;;;27.00;82.90;;;;;;5039303;28;20239;-57
2021/01/24 00:24:03;;;;;;;44.42;40.00;;;27.00;82.90;;;;;;5038470;28;20253;-57
2021/01/24 00:26:34;;;;;;;42.22;37.75;;;27.00;83.00;;;;;;5046149;28;20229;-54
2021/01/24 00:29:04;;;;;;;44.17;39.65;;;27.00;83.20;;;;;;5042992;28;20252;-54
2021/01/24 00:31:36;;;;;;;42.30;38.20;;;27.10;83.40;;;;;;5047457;28;20229;-56
2021/01/24 00:34:07;;;;;;;43.42;39.15;;;27.00;83.50;;;;;;5035492;28;20456;-53
2021/01/24 00:36:38;;;;;;;39.28;35.50;;;27.10;83.60;;;;;;5040661;28;20222;-57
2021/01/24 00:39:09;;;;;;;40.85;36.72;;;27.10;83.70;;;;;;5043969;28;20256;-57
2021/01/24 00:41:40;;;;;;;44.30;39.85;;;27.20;83.90;;;;;;5040648;28;20264;-52
2021/01/24 00:44:13;;;;;;;41.90;37.70;;;27.20;84.90;;;;;;5039748;28;20289;-56
2021/01/24 00:46:45;;;;;;;38.67;34.95;;;27.20;84.30;;;;;;5032792;28;20257;-55
2021/01/24 00:49:16;;;;;;;38.90;35.03;;;27.20;84.40;;;;;;5030081;28;20261;-54
2021/01/24 00:51:47;;;;;;;44.42;39.95;;;27.30;84.70;;;;;;5029973;28;20277;-56
2021/01/24 00:54:18;;;;;;;41.05;37.20;;;27.30;85.00;;;;;;5023846;28;20311;-56
2021/01/24 00:56:49;;;;;;;39.17;35.47;;;27.30;85.10;;;;;;5031934;28;20237;-56
2021/01/24 00:59:20;;;;;;;39.53;35.80;;;27.40;85.30;;;;;;5036326;28;20253;-54
2021/01/24 01:01:51;;;;;;;34.67;31.17;;;27.40;85.50;;;;;;5037246;28;20639;-56
2021/01/24 01:04:22;;;;;;;33.25;30.00;;;27.50;85.70;;;;;;5025119;28;20244;-52
2021/01/24 01:06:53;;;;;;;29.85;27.08;;;27.60;85.70;;;;;;5031314;28;20297;-54
2021/01/24 01:09:24;;;;;;;26.98;24.48;;;27.60;85.80;;;;;;5035573;28;20258;-51
2021/01/24 01:11:54;;;;;;;26.00;23.65;;;27.70;85.90;;;;;;5035354;28;20244;-52
2021/01/24 01:14:25;;;;;;;25.73;23.40;;;27.80;86.20;;;;;;5029815;28;20263;-53
2021/01/24 01:16:57;;;;;;;23.98;21.85;;;27.90;86.20;;;;;;5028181;28;20222;-55
2021/01/24 01:19:28;;;;;;;22.98;20.95;;;27.90;86.20;;;;;;5042490;28;20333;-53
2021/01/24 01:21:59;;;;;;;25.80;23.30;;;28.00;86.40;;;;;;5035087;28;20246;-52
2021/01/24 01:24:30;;;;;;;23.58;21.38;;;28.10;86.50;;;;;;5037825;28;20547;-56
2021/01/24 01:27:01;;;;;;;22.25;20.20;;;28.10;86.50;;;;;;5037135;28;20261;-53
2021/01/24 01:29:32;;;;;;;22.13;20.00;;;28.20;86.40;;;;;;5033418;28;20238;-57
2021/01/24 01:32:04;;;;;;;21.17;19.30;;;28.30;86.40;;;;;;5042252;28;20241;-57
2021/01/24 01:34:35;;;;;;;20.70;18.83;;;28.40;86.40;;;;;;5035876;28;20227;-57
2021/01/24 01:37:05;;;;;;;17.80;16.15;;;28.50;86.20;;;;;;5047543;28;20234;-55
2021/01/24 01:39:39;;;;;;;17.60;16.00;;;28.50;86.10;;;;;;5027855;28;20253;-56
2021/01/24 01:42:13;;;;;;;16.45;15.05;;;28.60;85.90;;;;;;5040841;28;20302;-57
2021/01/24 01:44:44;;;;;;;15.23;13.98;;;28.70;85.60;;;;;;5037067;28;20244;-57
2021/01/24 01:47:18;;;;;;;14.35;13.05;;;28.80;85.50;;;;;;5034558;28;20246;-57
2021/01/24 01:49:48;;;;;;;16.23;14.57;;;28.80;85.10;;;;;;5009131;28;20234;-56
2021/01/24 01:52:19;;;;;;;14.68;13.50;;;28.90;85.00;;;;;;5020512;28;20479;-57
2021/01/24 01:54:50;;;;;;;15.18;13.88;;;29.00;84.60;;;;;;5034023;28;20287;-57
2021/01/24 01:57:21;;;;;;;18.25;16.65;;;29.00;84.10;;;;;;5025115;28;20219;-56
2021/01/24 01:59:52;;;;;;;15.75;14.32;;;29.10;83.50;;;;;;5015061;28;20293;-57
2021/01/24 02:02:46;;;;;;;14.52;13.32;;;29.20;83.20;;;;;;5034825;28;20243;-56
2021/01/24 02:05:20;;;;;;;20.05;18.15;;;29.30;82.60;;;;;;5034661;28;20230;-58
2021/01/24 02:07:55;;;;;;;18.27;16.67;;;29.40;81.90;;;;;;5034328;28;20229;-58
2021/01/24 02:10:29;;;;;;;14.98;13.77;;;29.30;81.60;;;;;;5027283;28;20237;-58
2021/01/24 02:13:07;;;;;;;15.23;13.85;;;29.40;81.70;;;;;;5034383;28;20234;-57
2021/01/24 02:15:39;;;;;;;14.45;13.07;;;29.50;81.80;;;;;;5034580;28;20313;-58
2021/01/24 02:18:11;;;;;;;14.75;13.55;;;29.60;81.30;;;;;;5030391;28;20237;-58
2021/01/24 02:20:45;;;;;;;14.70;13.45;;;29.60;80.60;;;;;;4966039;28;20256;-56
2021/01/24 02:23:17;;;;;;;13.27;12.15;;;29.70;80.70;;;;;;4965893;28;20234;-57
2021/01/24 02:25:51;;;;;;;12.70;11.60;;;29.80;80.80;;;;;;4975331;28;20228;-58
2021/01/24 02:28:32;;;;;;;13.32;12.23;;;29.80;80.40;;;;;;4972929;28;20501;-58
2021/01/24 02:31:04;;;;;;;14.50;13.07;;;29.90;79.20;;;;;;4973000;28;20263;-58
2021/01/24 02:33:35;;;;;;;13.90;12.70;;;30.00;79.30;;;;;;4920384;29;20269;-57
2021/01/24 02:36:06;;;;;;;14.68;13.38;;;30.10;79.50;;;;;;4918874;29;20265;-56
2021/01/24 02:38:38;;;;;;;16.10;14.77;;;30.10;79.00;;;;;;4912383;29;20227;-59
2021/01/24 02:41:10;;;;;;;16.40;14.93;;;30.20;77.40;;;;;;4918216;29;20589;-56
2021/01/24 02:43:43;;;;;;;15.00;13.63;;;30.20;77.30;;;;;;4892792;29;20321;-57
2021/01/24 02:46:14;;;;;;;13.25;12.15;;;30.20;77.30;;;;;;4896497;29;20235;-58
2021/01/24 02:48:46;;;;;;;13.32;12.02;;;30.30;77.40;;;;;;4901331;29;20287;-57
2021/01/24 02:51:19;;;;;;;12.82;11.70;;;30.40;77.30;;;;;;4916905;28;20241;-58
2021/01/24 02:53:52;;;;;;;13.82;12.60;;;30.40;77.20;;;;;;4948142;28;20338;-58
2021/01/24 02:56:23;;;;;;;13.77;12.57;;;30.50;76.80;;;;;;4960995;28;20237;-57
2021/01/24 02:58:54;;;;;;;13.88;12.68;;;30.50;76.30;;;;;;4957734;28;20242;-60
2021/01/24 03:01:26;;;;;;;13.05;11.95;;;30.60;75.50;;;;;;4951878;28;20308;-57
2021/01/24 03:03:58;;;;;;;14.05;12.65;;;30.60;75.60;;;;;;4964657;28;20588;-57
2021/01/24 03:06:28;;;;;;;14.15;12.98;;;30.80;75.50;;;;;;5013036;28;20270;-58
2021/01/24 03:08:59;;;;;;;13.25;12.07;;;30.80;74.40;;;;;;5022712;28;20265;-57
2021/01/24 03:11:30;;;;;;;13.93;12.73;;;30.90;74.80;;;;;;5031340;28;20234;-59
2021/01/24 03:14:03;;;;;;;12.18;11.18;;;31.00;74.30;;;;;;5030558;28;20310;-58
2021/01/24 03:16:36;;;;;;;14.65;13.43;;;31.10;74.30;;;;;;5013178;28;20317;-59
2021/01/24 03:19:07;;;;;;;16.23;14.55;;;31.10;72.30;;;;;;4973303;28;20732;-60
2021/01/24 03:21:38;;;;;;;15.27;13.93;;;31.20;71.70;;;;;;4970314;28;20259;-58
2021/01/24 03:24:09;;;;;;;14.50;13.10;;;31.20;70.50;;;;;;4967663;28;20232;-58
2021/01/24 03:26:39;;;;;;;13.07;11.90;;;31.20;70.80;;;;;;4975508;28;20235;-58
2021/01/24 03:29:10;;;;;;;13.38;12.23;;;31.20;71.50;;;;;;4981016;28;20649;-54
2021/01/24 03:31:42;;;;;;;13.88;12.77;;;31.30;71.70;;;;;;4941583;29;20256;-56
2021/01/24 03:34:19;;;;;;;13.27;12.15;;;31.30;71.50;;;;;;4936122;28;20226;-56
2021/01/24 03:36:51;;;;;;;13.88;12.70;;;31.40;72.00;;;;;;4931678;28;20328;-56
2021/01/24 03:39:22;;;;;;;13.38;12.07;;;31.50;71.30;;;;;;4928191;28;20243;-53
2021/01/24 03:41:53;;;;;;;13.55;12.27;;;31.60;71.10;;;;;;4920733;28;20225;-56
2021/01/24 03:44:23;;;;;;;13.88;12.63;;;31.70;70.50;;;;;;4952850;28;20245;-55
2021/01/24 03:46:56;;;;;;;15.73;14.18;;;31.80;70.80;;;;;;4945398;28;20305;-56
2021/01/24 03:49:27;;;;;;;16.05;14.65;;;31.80;69.90;;;;;;4955134;28;20235;-53
2021/01/24 03:51:58;;;;;;;14.68;13.23;;;31.90;69.40;;;;;;4991885;28;20232;-56
2021/01/24 03:54:29;;;;;;;13.73;12.52;;;31.90;68.90;;;;;;4985155;28;20709;-55
2021/01/24 03:56:59;;;;;;;13.48;12.20;;;32.00;69.00;;;;;;5036531;28;20230;-57
2021/01/24 03:59:32;;;;;;;13.18;11.98;;;32.10;68.60;;;;;;5042659;28;20230;-51
2021/01/24 04:02:04;;;;;;;14.27;13.00;;;32.10;68.60;;;;;;5036249;28;20510;-57
2021/01/24 04:04:35;;;;;;;13.90;12.73;;;32.20;67.50;;;;;;5025732;28;20234;-56
2021/01/24 04:07:05;;;;;;;15.05;13.75;;;32.20;67.00;;;;;;5029374;28;20223;-58
2021/01/24 04:09:36;;;;;;;15.15;13.75;;;32.20;66.40;;;;;;5029269;28;20226;-52
2021/01/24 04:12:07;;;;;;;15.13;13.82;;;32.30;66.00;;;;;;5034023;28;20257;-57
2021/01/24 04:14:38;;;;;;;15.75;14.35;;;32.30;66.20;;;;;;5036446;28;20671;-58
2021/01/24 04:17:11;;;;;;;16.90;15.50;;;32.30;66.20;;;;;;5029838;28;20231;-58
2021/01/24 04:19:41;;;;;;;15.93;14.48;;;32.40;66.30;;;;;;5024062;28;20282;-55
2021/01/24 04:22:12;;;;;;;19.10;17.08;;;32.40;66.70;;;;;;5024114;28;20244;-56
2021/01/24 04:24:43;;;;;;;22.00;19.80;;;32.50;66.30;;;;;;5032918;28;20230;-56
2021/01/24 04:27:14;;;;;;;23.10;20.58;;;32.50;66.50;;;;;;5030855;28;20316;-56
2021/01/24 04:29:44;;;;;;;16.73;15.10;;;32.60;66.10;;;;;;5042388;28;20236;-57
2021/01/24 04:32:15;;;;;;;14.48;13.15;;;32.70;65.40;;;;;;5018794;28;20306;-54
2021/01/24 04:34:46;;;;;;;11.02;10.13;;;32.70;63.80;;;;;;5018871;28;20273;-56
2021/01/24 04:37:18;;;;;;;13.38;11.98;;;32.70;64.70;;;;;;5014659;28;20631;-56
2021/01/24 04:39:48;;;;;;;15.68;14.18;;;32.70;64.80;;;;;;5033750;28;20245;-56
2021/01/24 04:42:19;;;;;;;13.98;12.77;;;32.80;64.40;;;;;;5031581;28;20271;-57
2021/01/24 04:44:50;;;;;;;13.20;12.00;;;32.90;64.60;;;;;;5035832;28;20231;-58
2021/01/24 04:47:22;;;;;;;12.00;11.10;;;32.90;64.50;;;;;;5043236;28;20237;-57
2021/01/24 04:49:53;;;;;;;12.80;11.60;;;33.00;64.50;;;;;;5029208;28;20277;-58
2021/01/24 04:52:24;;;;;;;14.15;12.95;;;33.00;64.70;;;;;;5028730;28;20273;-58
2021/01/24 04:54:55;;;;;;;14.18;12.93;;;33.10;64.60;;;;;;5033111;28;20235;-57
2021/01/24 04:57:25;;;;;;;13.40;12.13;;;33.10;63.80;;;;;;5028924;28;20288;-56
2021/01/24 04:59:56;;;;;;;11.98;10.88;;;33.20;63.50;;;;;;4972567;28;20244;-57
2021/01/24 05:02:28;;;;;;;13.23;12.07;;;33.20;62.60;;;;;;4986161;28;20238;-57
2021/01/24 05:04:59;;;;;;;10.90;9.90;;;33.20;61.40;;;;;;4972258;28;20232;-58
2021/01/24 05:07:30;;;;;;;11.32;10.23;;;33.20;62.30;;;;;;4979738;28;20236;-57
2021/01/24 05:10:01;;;;;;;13.02;11.93;;;33.30;63.30;;;;;;4983029;28;20251;-58
2021/01/24 05:12:32;;;;;;;11.93;10.93;;;33.30;63.40;;;;;;4974470;28;20319;-57
2021/01/24 05:15:10;;;;;;;11.55;10.50;;;33.30;63.00;;;;;;4974023;28;20267;-57
2021/01/24 05:17:53;;;;;;;10.25;9.38;;;33.40;62.00;;;;;;4972297;28;20596;-56
2021/01/24 05:20:25;;;;;;;11.20;10.30;;;33.40;62.10;;;;;;4977443;28;20679;-56
2021/01/24 05:22:56;;;;;;;12.10;10.95;;;33.50;61.50;;;;;;4970723;28;20292;-57
2021/01/24 05:25:28;;;;;;;11.63;10.63;;;33.50;61.50;;;;;;4963096;28;20244;-57
2021/01/24 05:27:59;;;;;;;10.70;9.80;;;33.50;61.40;;;;;;4910668;29;20412;-58
2021/01/24 05:30:33;;;;;;;10.00;8.98;;;33.50;61.90;;;;;;4912706;29;20242;-57
2021/01/24 05:33:05;;;;;;;9.57;8.80;;;33.60;62.00;;;;;;4909595;29;20257;-61
2021/01/24 05:35:36;;;;;;;14.95;13.40;;;33.50;62.00;;;;;;4906359;29;20227;-60
2021/01/24 05:38:07;;;;;;;13.95;12.60;;;33.60;61.40;;;;;;4874809;29;20243;-61
2021/01/24 05:40:41;;;;;;;15.40;14.00;;;33.60;62.40;;;;;;4884909;29;20319;-58
2021/01/24 05:43:12;;;;;;;19.13;17.35;;;33.70;62.40;;;;;;4869002;29;20235;-59
2021/01/24 05:45:44;;;;;;;11.57;10.57;;;33.70;62.10;;;;;;4851252;29;20247;-56
2021/01/24 05:48:16;;;;;;;11.60;10.70;;;33.70;61.90;;;;;;4877968;29;20250;-53
2021/01/24 05:50:47;;;;;;;13.00;11.73;;;33.70;62.20;;;;;;4873041;29;20383;-57
2021/01/24 05:53:18;;;;;;;13.15;11.95;;;33.70;62.60;;;;;;4895187;29;20254;-55
2021/01/24 05:55:49;;;;;;;12.32;11.18;;;33.70;62.40;;;;;;4912618;28;20236;-54
2021/01/24 05:58:20;;;;;;;10.68;9.77;;;33.70;62.00;;;;;;4958556;28;20240;-57
2021/01/24 06:00:51;;;;;;;10.32;9.43;;;33.80;62.40;;;;;;4960478;28;20240;-52
2021/01/24 06:03:23;;;;;;;10.02;9.13;;;33.80;62.50;;;;;;4971597;28;20247;-56
2021/01/24 06:05:54;;;;;;;11.77;10.73;;;33.90;60.80;;;;;;4977318;28;20306;-55
2021/01/24 06:08:25;;;;;;;9.88;8.98;;;34.00;58.60;;;;;;4983272;28;20332;-56
2021/01/24 06:10:56;;;;;;;10.45;9.55;;;34.00;59.20;;;;;;5001956;28;20239;-51
2021/01/24 06:13:26;;;;;;;9.55;8.65;;;34.10;58.40;;;;;;5014437;28;20227;-55
2021/01/24 06:15:59;;;;;;;10.60;8.35;;;34.20;58.90;;;;;;5022660;28;20669;-53
2021/01/24 06:18:37;;;;;;;9.55;8.70;;;34.20;59.20;;;;;;5016988;28;20231;-56
2021/01/24 06:21:08;;;;;;;13.10;11.80;;;34.30;58.70;;;;;;5018677;28;20227;-57
2021/01/24 06:23:40;;;;;;;11.00;10.00;;;34.50;60.20;;;;;;5019886;28;20246;-53
2021/01/24 06:26:13;;;;;;;9.55;8.75;;;34.50;60.70;;;;;;5021814;28;20253;-54
2021/01/24 06:28:45;;;;;;;8.70;8.00;;;34.60;60.00;;;;;;5012824;28;20761;-51
2021/01/24 06:31:16;;;;;;;12.98;11.80;;;34.70;59.60;;;;;;5027089;28;20309;-56
2021/01/24 06:33:52;;;;;;;11.07;10.07;;;34.80;59.10;;;;;;5030157;28;20229;-51
2021/01/24 06:36:23;;;;;;;9.50;8.70;;;34.80;58.70;;;;;;4999492;28;20591;-53
2021/01/24 06:38:55;;;;;;;10.82;9.23;;;34.80;59.00;;;;;;5007984;28;20276;-54
2021/01/24 06:41:46;;;;;;;10.40;9.50;;;34.80;58.60;;;;;;5008088;28;20702;-53
2021/01/24 06:44:37;;;;;;;10.52;9.35;;;34.80;58.20;;;;;;5005348;28;20348;-53
2021/01/24 06:47:09;;;;;;;11.25;10.15;;;34.80;57.70;;;;;;5014594;28;20322;-48
2021/01/24 06:49:44;;;;;;;11.02;9.93;;;34.80;58.80;;;;;;5013180;28;20272;-48
2021/01/24 06:52:19;;;;;;;10.57;9.55;;;34.80;58.30;;;;;;5006143;28;20287;-48
2021/01/24 06:54:50;;;;;;;9.88;8.95;;;34.70;58.70;;;;;;5021356;28;20320;-50
2021/01/24 06:57:20;;;;;;;9.65;8.85;;;34.70;57.80;;;;;;5007909;28;20233;-50
2021/01/24 06:59:51;;;;;;;9.02;8.23;;;34.70;58.20;;;;;;5013282;28;20230;-53
2021/01/24 07:02:28;;;;;;;9.50;8.65;;;34.70;58.40;;;;;;5015338;28;20274;-51
2021/01/24 07:05:10;;;;;;;9.50;8.70;;;34.80;57.50;;;;;;4961933;28;20232;-49
2021/01/24 07:07:42;;;;;;;11.27;9.68;;;34.80;57.40;;;;;;4962063;28;20228;-50
2021/01/24 07:10:45;;;;;;;9.90;8.98;;;34.80;57.90;;;;;;4964696;28;20790;-50
2021/01/24 07:13:35;;;;;;;10.70;9.70;;;34.80;58.10;;;;;;4962447;28;20276;-50
2021/01/24 07:16:07;;;;;;;10.25;9.35;;;34.80;57.90;;;;;;4967182;28;20294;-50
2021/01/24 07:18:42;;;;;;;10.75;9.85;;;34.80;57.40;;;;;;4963575;28;20225;-54
2021/01/24 07:21:14;;;;;;;10.90;9.90;;;34.80;57.50;;;;;;4965622;28;20334;-53
2021/01/24 07:23:46;;;;;;;11.88;9.95;;;34.80;58.10;;;;;;4964498;28;20316;-53
2021/01/24 07:26:18;;;;;;;10.57;9.52;;;34.70;57.90;;;;;;4961400;28;20366;-53
2021/01/24 07:28:49;;;;;;;11.18;10.18;;;34.70;58.40;;;;;;4906776;29;20330;-52
2021/01/24 07:31:20;;;;;;;10.70;9.70;;;34.60;58.30;;;;;;4880228;29;20254;-55
2021/01/24 07:33:51;;;;;;;10.60;9.70;;;34.60;58.30;;;;;;4906507;29;20235;-53
2021/01/24 07:36:22;;;;;;;11.50;10.40;;;34.40;58.70;;;;;;4942671;28;20235;-52
2021/01/24 07:38:53;;;;;;;10.95;9.98;;;34.30;58.70;;;;;;4963456;28;20232;-55
2021/01/24 07:41:24;;;;;;;10.88;9.82;;;34.20;59.40;;;;;;4954744;28;20259;-50
2021/01/24 07:43:55;;;;;;;11.50;10.50;;;34.20;59.90;;;;;;4963398;28;20248;-48
2021/01/24 07:46:26;;;;;;;11.80;10.60;;;34.20;59.70;;;;;;4963387;28;20245;-53
2021/01/24 07:48:59;;;;;;;10.73;9.80;;;34.10;59.80;;;;;;4958797;28;20748;-52
2021/01/24 07:51:31;;;;;;;10.75;9.65;;;34.10;60.10;;;;;;4965479;28;20907;-49
2021/01/24 07:54:02;;;;;;;12.27;9.60;;;34.20;60.50;;;;;;4965660;28;20324;-48
2021/01/24 07:56:33;;;;;;;10.88;9.77;;;34.20;60.30;;;;;;4965530;28;20795;-50
2021/01/24 07:59:03;;;;;;;10.40;9.40;;;34.20;60.00;;;;;;4973374;28;20232;-49
2021/01/24 08:01:34;;;;;;;11.35;10.15;;;34.30;59.70;;;;;;5027529;28;20226;-50
2021/01/24 08:04:05;;;;;;;10.13;9.23;;;34.20;59.20;;;;;;5000144;28;20592;-52
2021/01/24 08:06:38;;;;;;;9.95;9.05;;;34.30;59.50;;;;;;5027682;28;20325;-51
2021/01/24 08:09:09;;;;;;;9.93;8.95;;;34.30;59.00;;;;;;5034860;28;20690;-49
2021/01/24 08:11:40;;;;;;;10.95;9.95;;;34.20;59.30;;;;;;5025128;28;20265;-51
2021/01/24 08:14:10;;;;;;;11.95;9.27;;;34.20;59.10;;;;;;5028057;28;20326;-48
2021/01/24 08:16:42;;;;;;;9.75;8.90;;;34.20;60.00;;;;;;5026644;28;20245;-52
2021/01/24 08:19:15;;;;;;;10.30;9.43;;;34.20;59.90;;;;;;5027026;28;20292;-51
2021/01/24 08:21:47;;;;;;;10.35;9.40;;;34.20;59.70;;;;;;5026004;28;20269;-53
2021/01/24 08:24:17;;;;;;;10.27;9.10;;;34.20;59.10;;;;;;5027593;28;20319;-51
2021/01/24 08:26:48;;;;;;;10.57;9.73;;;34.10;59.60;;;;;;4966228;28;20615;-54
2021/01/24 08:29:19;;;;;;;10.52;9.45;;;34.20;60.50;;;;;;4965552;28;20327;-52
2021/01/24 08:31:49;;;;;;;11.00;9.93;;;34.10;60.30;;;;;;4964623;28;20235;-52
2021/01/24 08:34:20;;;;;;;11.15;10.07;;;34.10;59.40;;;;;;4907883;29;20710;-53
2021/01/24 08:36:51;;;;;;;11.10;10.10;;;34.00;59.90;;;;;;4908454;29;20357;-52
2021/01/24 08:39:24;;;;;;;11.02;9.93;;;34.00;60.70;;;;;;4907953;29;20707;-53
2021/01/24 08:41:56;;;;;;;10.90;9.90;;;34.00;61.20;;;;;;4907662;29;20235;-54
2021/01/24 08:44:26;;;;;;;11.48;10.45;;;33.90;61.40;;;;;;4907301;29;20233;-55
2021/01/24 08:47:03;;;;;;;10.63;9.60;;;33.90;61.30;;;;;;4903880;29;20258;-49
2021/01/24 08:49:34;;;;;;;11.90;10.80;;;33.90;61.30;;;;;;4906761;29;20411;-55
2021/01/24 08:52:06;;;;;;;13.65;12.15;;;33.90;61.70;;;;;;4953840;28;20252;-49
2021/01/24 08:54:37;;;;;;;11.35;10.35;;;34.00;61.30;;;;;;4963887;28;20397;-51
2021/01/24 08:57:09;;;;;;;11.73;10.63;;;33.90;61.30;;;;;;4973290;28;20267;-53
2021/01/24 08:59:58;;;;;;;12.20;11.02;;;33.90;61.20;;;;;;5015665;28;20321;-52
2021/01/24 09:02:32;;;;;;;15.20;13.27;;;34.00;61.00;;;;;;5026509;28;20233;-49
2021/01/24 09:05:06;;;;;;;15.32;13.70;;;34.00;60.50;;;;;;5006665;28;20237;-50
2021/01/24 09:07:40;;;;;;;11.65;10.45;;;34.00;60.80;;;;;;5006022;28;20749;-51
2021/01/24 09:10:20;;;;;;;10.27;9.05;;;34.00;60.70;;;;;;5000658;28;20996;-51
2021/01/24 09:12:51;;;;;;;10.90;9.82;;;34.00;60.30;;;;;;4998743;28;20239;-51
2021/01/24 09:15:22;;;;;;;10.88;9.77;;;34.10;60.60;;;;;;5001861;28;20289;-50
2021/01/24 09:17:54;;;;;;;11.00;9.85;;;34.10;60.40;;;;;;5006424;28;20231;-50
2021/01/24 09:20:25;;;;;;;11.40;10.30;;;34.20;60.30;;;;;;5006517;28;20242;-49
2021/01/24 09:22:57;;;;;;;11.50;10.30;;;34.20;60.50;;;;;;5005939;28;20303;-49
2021/01/24 09:25:28;;;;;;;9.80;8.80;;;34.20;59.80;;;;;;5003370;28;20338;-51
2021/01/24 09:27:59;;;;;;;11.38;10.27;;;34.20;59.70;;;;;;5005999;28;20333;-50
2021/01/24 09:30:33;;;;;;;11.27;10.18;;;34.30;59.80;;;;;;5004304;28;21157;-50
2021/01/24 09:33:04;;;;;;;11.05;9.90;;;34.30;59.60;;;;;;5002290;28;20782;-54
2021/01/24 09:35:35;;;;;;;12.05;10.80;;;34.30;59.60;;;;;;4999473;28;20231;-56
2021/01/24 09:38:07;;;;;;;11.13;10.07;;;34.30;59.60;;;;;;5001492;28;20251;-53
2021/01/24 09:40:37;;;;;;;10.88;9.82;;;34.20;59.70;;;;;;4985837;28;20805;-54
2021/01/24 09:43:08;;;;;;;10.63;9.63;;;34.20;60.20;;;;;;5003818;28;20237;-51
2021/01/24 09:45:38;;;;;;;11.07;10.07;;;34.20;59.10;;;;;;5005955;28;20307;-53
2021/01/24 09:48:15;;;;;;;11.85;10.27;;;34.20;59.40;;;;;;5005193;28;20243;-56
2021/01/24 09:50:45;;;;;;;9.80;8.75;;;34.20;59.00;;;;;;5004624;28;20919;-52
2021/01/24 09:53:17;;;;;;;9.85;9.05;;;34.20;59.10;;;;;;4997981;28;20240;-50
2021/01/24 09:55:47;;;;;;;11.05;9.95;;;34.10;58.90;;;;;;5005108;28;20227;-51
2021/01/24 09:58:18;;;;;;;10.32;9.02;;;34.20;58.70;;;;;;4997177;28;20241;-50
2021/01/24 10:00:49;;;;;;;9.73;8.82;;;34.10;58.60;;;;;;4995346;28;20247;-50
2021/01/24 10:03:19;;;;;;;12.27;9.98;;;34.10;58.50;;;;;;5014487;28;20274;-52
2021/01/24 10:05:50;;;;;;;10.40;9.40;;;34.10;57.90;;;;;;5017207;28;20565;-49
2021/01/24 10:08:22;;;;;;;11.57;10.63;;;34.10;58.00;;;;;;5023450;28;20234;-50
2021/01/24 10:10:52;;;;;;;11.90;10.57;;;34.20;57.90;;;;;;5016813;28;20317;-49
2021/01/24 10:13:23;;;;;;;10.35;9.35;;;34.20;58.00;;;;;;5025601;28;20235;-54
2021/01/24 10:15:53;;;;;;;10.80;9.80;;;34.10;58.00;;;;;;5025304;28;20690;-51
2021/01/24 10:18:24;;;;;;;11.43;10.30;;;34.10;58.10;;;;;;5024554;28;20413;-53
2021/01/24 10:20:55;;;;;;;11.68;10.48;;;34.10;58.30;;;;;;5025994;28;20234;-51
2021/01/24 10:23:29;;;;;;;11.07;9.98;;;34.10;58.50;;;;;;5025561;28;20741;-50
2021/01/24 10:25:59;;;;;;;12.80;11.13;;;34.10;58.90;;;;;;5025146;28;20239;-51
2021/01/24 10:28:30;;;;;;;11.82;10.20;;;34.20;59.30;;;;;;5026313;28;20375;-50
2021/01/24 10:31:03;;;;;;;10.27;8.65;;;34.40;58.80;;;;;;5026250;28;20235;-52
2021/01/24 10:33:34;;;;;;;11.23;10.13;;;34.60;58.80;;;;;;5021064;28;20296;-52
2021/01/24 10:36:05;;;;;;;10.60;9.52;;;34.90;58.70;;;;;;5024622;28;20235;-53
2021/01/24 10:38:39;;;;;;;10.88;9.73;;;35.20;58.10;;;;;;5026925;28;20586;-49
2021/01/24 10:41:09;;;;;;;9.93;9.02;;;35.40;57.30;;;;;;5028740;28;20234;-47
2021/01/24 10:43:40;;;;;;;11.07;9.98;;;35.70;56.90;;;;;;5029757;28;20238;-49
2021/01/24 10:46:10;;;;;;;10.23;9.23;;;35.80;56.40;;;;;;5022972;28;20240;-52
2021/01/24 10:48:44;;;;;;;10.32;9.40;;;35.90;55.40;;;;;;5037316;28;20234;-55
2021/01/24 10:51:14;;;;;;;10.35;9.35;;;36.00;54.90;;;;;;5026999;28;20229;-50
2021/01/24 10:53:46;;;;;;;9.40;8.60;;;35.90;54.90;;;;;;5027836;28;20337;-50
2021/01/24 10:56:18;;;;;;;9.52;8.63;;;35.90;55.10;;;;;;5026620;28;20279;-54
2021/01/24 10:58:48;;;;;;;9.63;8.55;;;35.90;55.20;;;;;;5026645;28;20879;-52
2021/01/24 11:01:19;;;;;;;9.43;8.52;;;35.80;54.50;;;;;;5026619;28;20732;-53
2021/01/24 11:03:49;;;;;;;9.48;8.45;;;35.70;54.00;;;;;;5022845;28;20235;-54
2021/01/24 11:06:20;;;;;;;8.23;7.53;;;35.50;53.90;;;;;;5010823;28;20234;-55
2021/01/24 11:08:52;;;;;;;8.38;7.68;;;35.40;54.20;;;;;;4996906;28;20231;-52
2021/01/24 11:11:23;;;;;;;10.05;9.15;;;35.20;54.40;;;;;;5004060;28;20235;-51
2021/01/24 11:13:54;;;;;;;9.02;8.23;;;34.90;54.80;;;;;;5008015;28;20879;-51
2021/01/24 11:16:24;;;;;;;8.55;7.85;;;34.70;55.20;;;;;;5011527;28;20239;-52
2021/01/24 11:18:56;;;;;;;9.15;8.35;;;34.40;55.60;;;;;;5012492;28;20274;-55
2021/01/24 11:21:26;;;;;;;10.43;8.70;;;34.20;56.10;;;;;;5011459;28;20305;-53
2021/01/24 11:23:58;;;;;;;9.40;8.45;;;34.00;56.50;;;;;;4950705;28;20238;-52
2021/01/24 11:26:29;;;;;;;8.90;8.10;;;33.80;56.80;;;;;;4960745;28;20712;-51
2021/01/24 11:28:59;;;;;;;8.45;7.65;;;33.60;57.10;;;;;;4951531;28;20237;-53
2021/01/24 11:31:30;;;;;;;8.13;7.43;;;33.50;57.50;;;;;;4955566;28;20658;-54
2021/01/24 11:34:01;;;;;;;9.23;8.30;;;33.40;57.80;;;;;;4953810;28;20233;-53
2021/01/24 11:36:32;;;;;;;8.85;7.93;;;33.30;58.10;;;;;;4949810;28;20270;-54
2021/01/24 11:39:04;;;;;;;9.02;8.13;;;33.20;58.20;;;;;;4955740;28;20229;-53
2021/01/24 11:41:35;;;;;;;8.82;8.02;;;33.10;58.60;;;;;;4960714;28;20236;-52
2021/01/24 11:44:06;;;;;;;9.13;8.23;;;33.00;58.70;;;;;;4958799;28;20261;-53
2021/01/24 11:46:36;;;;;;;9.43;8.52;;;33.00;59.00;;;;;;4963965;28;20759;-51
2021/01/24 11:49:08;;;;;;;8.95;8.10;;;32.90;59.20;;;;;;5007608;28;20277;-54
2021/01/24 11:51:39;;;;;;;9.63;8.73;;;32.80;59.40;;;;;;5008688;28;20239;-53
2021/01/24 11:54:12;;;;;;;9.35;8.45;;;32.80;59.70;;;;;;5007298;28;20235;-50
2021/01/24 11:56:42;;;;;;;9.60;8.70;;;32.70;59.90;;;;;;5003503;28;20235;-54
2021/01/24 11:59:13;;;;;;;10.07;8.95;;;32.60;60.00;;;;;;5003823;28;20605;-54
2021/01/24 12:01:44;;;;;;;11.75;9.77;;;32.60;60.20;;;;;;5005960;28;20577;-57
2021/01/24 12:04:14;;;;;;;12.43;10.85;;;32.50;60.40;;;;;;5023664;28;20737;-53
2021/01/24 12:06:45;;;;;;;14.30;12.88;;;32.40;60.60;;;;;;5024270;28;20630;-49
2021/01/24 12:09:17;;;;;;;15.80;14.20;;;32.40;60.90;;;;;;5026087;28;20766;-55
2021/01/24 12:11:48;;;;;;;16.88;14.90;;;32.40;61.30;;;;;;5034154;28;20230;-53
2021/01/24 12:14:18;;;;;;;16.40;14.73;;;32.30;61.50;;;;;;5029844;28;20242;-52
2021/01/24 12:16:49;;;;;;;14.25;12.75;;;32.30;61.70;;;;;;5023605;28;20242;-53
2021/01/24 12:19:20;;;;;;;11.65;10.55;;;32.20;61.80;;;;;;5024237;28;20336;-52
2021/01/24 12:21:51;;;;;;;11.02;9.93;;;32.20;62.00;;;;;;5029621;28;20712;-51
2021/01/24 12:24:23;;;;;;;10.82;9.73;;;32.10;62.20;;;;;;5026697;28;20234;-52
2021/01/24 12:26:54;;;;;;;10.10;9.18;;;32.10;62.40;;;;;;5032040;28;20870;-52
2021/01/24 12:29:24;;;;;;;10.30;9.30;;;32.10;62.50;;;;;;5028683;28;20245;-55
2021/01/24 12:31:55;;;;;;;10.65;9.68;;;32.00;62.50;;;;;;5030849;28;20241;-52
2021/01/24 12:34:26;;;;;;;9.82;8.80;;;32.00;62.80;;;;;;5033121;28;20232;-54
2021/01/24 12:36:56;;;;;;;9.77;8.77;;;32.00;62.90;;;;;;5034474;28;20690;-54
2021/01/24 12:39:28;;;;;;;10.23;9.25;;;31.90;63.00;;;;;;5031253;28;20284;-49
2021/01/24 12:41:59;;;;;;;9.80;8.57;;;31.90;63.30;;;;;;5021503;28;20246;-52
2021/01/24 12:44:30;;;;;;;10.50;9.50;;;31.90;63.40;;;;;;5024650;28;20227;-54
2021/01/24 12:47:01;;;;;;;10.15;9.15;;;31.80;63.60;;;;;;5027718;28;20240;-54
2021/01/24 12:49:32;;;;;;;11.27;10.18;;;31.80;63.90;;;;;;5024975;28;20662;-51
2021/01/24 12:52:03;;;;;;;8.80;7.97;;;31.80;64.20;;;;;;5022638;28;20229;-56
2021/01/24 12:54:35;;;;;;;10.20;9.30;;;31.70;64.20;;;;;;5028622;28;20711;-52
2021/01/24 12:57:06;;;;;;;9.52;8.55;;;31.70;64.50;;;;;;5027513;28;20241;-51